createdAt,value
2023-01-02T00:01:40.915Z,14.74
2023-01-02T00:04:08.921Z,14.90
2023-01-02T00:06:39.157Z,16.61
2023-01-02T00:09:08.506Z,17.57
2023-01-02T00:11:36.495Z,16.75
2023-01-02T00:14:04.548Z,15.94
2023-01-02T00:16:32.635Z,15.37
2023-01-02T00:19:00.780Z,14.98
2023-01-02T00:21:28.983Z,14.66
2023-01-02T00:23:56.959Z,14.84
2023-01-02T00:26:24.925Z,16.51
2023-01-02T00:28:53.060Z,17.45
2023-01-02T00:31:21.185Z,16.65
2023-01-02T00:33:49.206Z,15.83
2023-01-02T00:36:17.225Z,15.27
2023-01-02T00:38:45.264Z,14.87
2023-01-02T00:41:31.615Z,14.52
2023-01-02T00:43:59.569Z,14.28
2023-01-02T00:46:27.516Z,14.56
2023-01-02T00:48:55.543Z,16.38
2023-01-02T00:51:23.417Z,17.37
2023-01-02T00:53:51.406Z,16.56
2023-01-02T00:56:19.311Z,15.73
2023-01-02T00:58:47.254Z,15.17
2023-01-02T01:01:15.438Z,14.78
2023-01-02T01:03:43.611Z,14.47
2023-01-02T01:06:11.854Z,14.21
2023-01-02T01:08:39.771Z,14.57
2023-01-02T01:11:13.450Z,16.33
2023-01-02T01:13:42.146Z,17.30
2023-01-02T01:16:15.751Z,16.46
2023-01-02T01:18:44.394Z,15.61
2023-01-02T01:21:18.092Z,15.05
2023-01-02T01:23:51.737Z,14.65
2023-01-02T01:26:20.714Z,14.79
2023-01-02T01:28:49.485Z,16.49
2023-01-02T01:31:17.639Z,17.42
2023-01-02T01:33:46.341Z,16.56
2023-01-02T01:36:16.697Z,15.74
2023-01-02T01:38:45.865Z,15.15
2023-01-02T01:41:17.851Z,14.74
2023-01-02T01:43:51.576Z,14.87
2023-01-02T01:46:39.590Z,16.58
2023-01-02T01:49:26.699Z,17.43
2023-01-02T01:51:58.521Z,16.39
2023-01-02T01:54:34.973Z,15.61
2023-01-02T01:57:13.323Z,15.06
2023-01-02T01:59:41.788Z,14.65
2023-01-02T02:02:09.952Z,14.77
2023-01-02T02:04:38.250Z,16.48
2023-01-02T02:07:06.473Z,17.43
2023-01-02T02:09:41.122Z,16.57
2023-01-02T02:12:09.179Z,15.67
2023-01-02T02:14:37.198Z,15.08
2023-01-02T02:17:38.742Z,15.24
2023-01-02T02:21:32.895Z,17.25
2023-01-02T02:24:45.169Z,17.20
2023-01-02T02:27:53.260Z,15.98
2023-01-02T02:30:24.181Z,15.79
2023-01-02T02:33:15.588Z,17.34
2023-01-02T02:36:10.814Z,17.60
2023-01-02T02:39:00.114Z,16.40
2023-01-02T02:41:53.630Z,15.57
2023-01-02T02:44:46.471Z,15.65
2023-01-02T02:48:30.844Z,17.53
2023-01-02T02:51:07.774Z,17.36
2023-01-02T02:53:50.678Z,16.31
2023-01-02T02:56:19.680Z,15.57
2023-01-02T02:58:47.725Z,15.47
2023-01-02T03:01:22.591Z,17.01
2023-01-02T03:03:53.720Z,17.90
2023-01-02T03:06:58.979Z,16.96
2023-01-02T03:10:32.006Z,15.88
2023-01-02T03:13:47.636Z,15.12
2023-01-02T03:16:38.429Z,16.50
2023-01-02T03:19:11.891Z,17.53
2023-01-02T03:21:59.222Z,16.59
2023-01-02T03:24:28.402Z,15.68
2023-01-02T03:27:07.337Z,15.12
2023-01-02T03:29:42.817Z,14.68
2023-01-02T03:32:39.939Z,15.00
2023-01-02T03:35:15.596Z,17.00
2023-01-02T03:37:49.497Z,17.33
2023-01-02T03:40:26.826Z,16.30
2023-01-02T03:43:08.507Z,15.49
2023-01-02T03:45:47.033Z,14.92
2023-01-02T03:48:41.568Z,14.51
2023-01-02T03:51:09.640Z,14.99
2023-01-02T03:53:39.759Z,16.85
2023-01-02T03:56:45.612Z,17.29
2023-01-02T03:59:22.905Z,16.08
2023-01-02T04:02:24.872Z,15.32
2023-01-02T04:05:04.833Z,14.73
2023-01-02T04:07:59.564Z,14.35
2023-01-02T04:10:29.405Z,14.77
2023-01-02T04:13:03.174Z,16.65
2023-01-02T04:15:34.143Z,17.26
2023-01-02T04:18:11.043Z,16.29
2023-01-02T04:20:44.015Z,15.45
2023-01-02T04:23:31.616Z,14.92
2023-01-02T04:26:12.419Z,14.52
2023-01-02T04:28:40.744Z,14.20
2023-01-02T04:31:43.229Z,14.55
2023-01-02T04:34:14.676Z,16.78
2023-01-02T04:36:43.413Z,16.98
2023-01-02T04:39:11.543Z,16.01
2023-01-02T04:41:40.226Z,15.28
2023-01-02T04:44:08.409Z,14.78
2023-01-02T04:46:36.359Z,14.42
2023-01-02T04:49:04.312Z,14.13
2023-01-02T04:51:32.330Z,14.78
2023-01-02T04:54:00.362Z,16.62
2023-01-02T04:56:28.345Z,16.74
2023-01-02T04:58:56.270Z,15.79
2023-01-02T05:01:24.695Z,15.07
2023-01-02T05:03:52.930Z,14.60
2023-01-02T05:06:21.110Z,14.25
2023-01-02T05:08:49.145Z,14.00
2023-01-02T05:11:19.880Z,15.05
2023-01-02T05:13:47.833Z,16.69
2023-01-02T05:16:15.906Z,16.29
2023-01-02T05:18:43.937Z,15.44
2023-01-02T05:21:32.042Z,14.85
2023-01-02T05:24:02.907Z,14.39
2023-01-02T05:26:33.033Z,14.07
2023-01-02T05:29:01.954Z,13.85
2023-01-02T05:31:30.217Z,14.87
2023-01-02T05:33:59.731Z,16.72
2023-01-02T05:36:28.226Z,16.71
2023-01-02T05:38:56.543Z,15.73
2023-01-02T05:41:24.671Z,15.03
2023-01-02T05:43:52.589Z,14.54
2023-01-02T05:46:21.513Z,14.19
2023-01-02T05:48:49.443Z,13.90
2023-01-02T05:51:18.340Z,14.15
2023-01-02T05:53:46.387Z,15.98
2023-01-02T05:56:17.853Z,16.40
2023-01-02T05:58:48.727Z,15.52
2023-01-02T06:01:20.794Z,14.83
2023-01-02T06:03:51.774Z,14.36
2023-01-02T06:06:26.066Z,14.01
2023-01-02T06:08:54.098Z,14.57
2023-01-02T06:11:22.208Z,16.49
2023-01-02T06:13:50.384Z,16.91
2023-01-02T06:16:18.440Z,15.94
2023-01-02T06:18:47.337Z,15.18
2023-01-02T06:21:18.865Z,14.66
2023-01-02T06:23:48.490Z,14.29
2023-01-02T06:26:19.462Z,14.00
2023-01-02T06:28:51.968Z,13.75
2023-01-02T06:31:22.977Z,14.08
2023-01-02T06:33:59.054Z,16.01
2023-01-02T06:36:33.317Z,16.71
2023-01-02T06:39:02.154Z,15.77
2023-01-02T06:41:30.262Z,15.03
2023-01-02T06:43:58.455Z,14.54
2023-01-02T06:46:26.496Z,14.19
2023-01-02T06:48:54.519Z,13.91
2023-01-02T06:51:24.190Z,13.77
2023-01-02T06:53:52.165Z,15.17
2023-01-02T06:56:21.513Z,16.59
2023-01-02T06:58:50.231Z,15.96
2023-01-02T07:01:22.132Z,15.17
2023-01-02T07:03:50.615Z,14.62
2023-01-02T07:06:22.511Z,14.25
2023-01-02T07:08:50.780Z,13.96
2023-01-02T07:11:25.000Z,14.18
2023-01-02T07:13:55.107Z,16.10
2023-01-02T07:16:24.409Z,16.68
2023-01-02T07:18:54.289Z,15.81
2023-01-02T07:21:22.977Z,15.09
2023-01-02T07:23:51.018Z,14.61
2023-01-02T07:26:20.553Z,14.28
2023-01-02T07:28:50.730Z,14.01
2023-01-02T07:31:20.134Z,14.15
2023-01-02T07:33:48.563Z,15.96
2023-01-02T07:36:19.301Z,17.03
2023-01-02T07:38:52.141Z,16.21
2023-01-02T07:41:25.672Z,15.38
2023-01-02T07:43:56.546Z,14.84
2023-01-02T07:46:24.793Z,14.48
2023-01-02T07:48:52.974Z,14.21
2023-01-02T07:51:26.582Z,13.98
2023-01-02T07:53:56.304Z,14.23
2023-01-02T07:56:25.979Z,16.09
2023-01-02T07:58:53.998Z,17.14
2023-01-02T08:01:22.256Z,16.34
2023-01-02T08:03:50.346Z,15.56
2023-01-02T08:06:19.396Z,15.03
2023-01-02T08:08:48.175Z,14.66
2023-01-02T08:11:22.145Z,14.40
2023-01-02T08:13:52.537Z,14.17
2023-01-02T08:16:22.405Z,13.99
2023-01-02T08:18:55.649Z,14.62
2023-01-02T08:21:26.500Z,16.47
2023-01-02T08:23:54.862Z,16.36
2023-01-02T08:26:24.232Z,15.59
2023-01-02T08:28:52.386Z,15.06
2023-01-02T08:31:22.197Z,14.70
2023-01-02T08:33:50.656Z,14.44
2023-01-02T08:36:18.956Z,14.25
2023-01-02T08:38:47.165Z,14.09
2023-01-02T08:41:15.462Z,14.40
2023-01-02T08:43:43.813Z,16.28
2023-01-02T08:46:11.868Z,17.29
2023-01-02T08:48:40.093Z,16.52
2023-01-02T08:51:08.270Z,15.77
2023-01-02T08:53:36.566Z,15.28
2023-01-02T08:56:25.866Z,14.95
2023-01-02T08:59:02.999Z,14.68
2023-01-02T09:01:33.219Z,14.46
2023-01-02T09:04:09.369Z,14.29
2023-01-02T09:06:40.628Z,14.12
2023-01-02T09:09:12.692Z,14.45
2023-01-02T09:11:50.974Z,16.38
2023-01-02T09:14:21.745Z,17.41
2023-01-02T09:16:51.893Z,16.58
2023-01-02T09:19:20.259Z,15.84
2023-01-02T09:21:48.505Z,15.36
2023-01-02T09:24:16.913Z,15.02
2023-01-02T09:26:45.386Z,14.76
2023-01-02T09:29:15.386Z,14.55
2023-01-02T09:31:43.637Z,14.37
2023-01-02T09:34:12.161Z,14.21
2023-01-02T09:36:40.292Z,14.50
2023-01-02T09:39:08.472Z,16.36
2023-01-02T09:41:41.547Z,17.45
2023-01-02T09:44:43.808Z,16.67
2023-01-02T09:47:11.847Z,15.80
2023-01-02T09:49:52.728Z,15.36
2023-01-02T09:52:37.249Z,15.02
2023-01-02T09:55:16.377Z,14.76
2023-01-02T09:58:10.607Z,14.56
2023-01-02T10:00:39.179Z,14.37
2023-01-02T10:03:30.199Z,14.72
2023-01-02T10:06:20.093Z,16.89
2023-01-02T10:09:13.065Z,17.50
2023-01-02T10:12:46.953Z,16.52
2023-01-02T10:15:21.617Z,15.74
2023-01-02T10:17:54.533Z,15.41
2023-01-02T10:20:33.418Z,15.18
2023-01-02T10:23:14.973Z,14.99
2023-01-02T10:25:53.012Z,14.84
2023-01-02T10:28:30.926Z,14.71
2023-01-02T10:31:15.716Z,14.60
2023-01-02T10:33:57.512Z,15.15
2023-01-02T10:36:33.905Z,17.30
2023-01-02T10:39:22.691Z,17.98
2023-01-02T10:41:55.502Z,17.01
2023-01-02T10:44:28.839Z,16.33
2023-01-02T10:46:57.172Z,15.90
2023-01-02T10:49:26.593Z,15.61
2023-01-02T10:52:13.268Z,15.38
2023-01-02T10:54:59.527Z,15.19
2023-01-02T10:57:40.163Z,15.04
2023-01-02T11:00:32.202Z,14.93
2023-01-02T11:03:06.864Z,15.78
2023-01-02T11:05:48.107Z,17.84
2023-01-02T11:08:24.548Z,18.01
2023-01-02T11:10:52.653Z,17.16
2023-01-02T11:14:12.622Z,16.52
2023-01-02T11:16:42.379Z,16.10
2023-01-02T11:19:29.376Z,15.84
2023-01-02T11:21:58.604Z,15.62
2023-01-02T11:24:28.594Z,15.45
2023-01-02T11:26:56.965Z,15.32
2023-01-02T11:29:33.618Z,15.19
2023-01-02T11:32:06.898Z,15.07
2023-01-02T11:34:40.190Z,14.98
2023-01-02T11:37:17.500Z,15.39
2023-01-02T11:40:05.455Z,17.43
2023-01-02T11:43:02.181Z,18.25
2023-01-02T11:45:30.828Z,17.28
2023-01-02T11:48:16.827Z,16.69
2023-01-02T11:50:47.137Z,16.27
2023-01-02T11:53:25.570Z,16.00
2023-01-02T11:55:59.010Z,15.79
2023-01-02T11:59:17.177Z,15.62
2023-01-02T12:01:54.553Z,15.44
2023-01-02T12:04:23.879Z,15.32
2023-01-02T12:07:07.629Z,15.20
2023-01-02T12:09:46.568Z,15.09
2023-01-02T12:12:37.967Z,14.98
2023-01-02T12:15:35.678Z,14.88
2023-01-02T12:18:53.419Z,15.08
2023-01-02T12:21:24.164Z,17.02
2023-01-02T12:24:23.524Z,18.18
2023-01-02T12:27:10.954Z,17.31
2023-01-02T12:30:12.233Z,16.60
2023-01-02T12:33:01.297Z,16.14
2023-01-02T12:35:57.201Z,15.87
2023-01-02T12:39:06.340Z,15.65
2023-01-02T12:42:26.137Z,15.47
2023-01-02T12:44:58.063Z,15.31
2023-01-02T12:47:55.992Z,15.18
2023-01-02T12:51:10.546Z,15.06
2023-01-02T12:54:47.650Z,14.95
2023-01-02T12:57:30.738Z,16.11
2023-01-02T13:00:18.866Z,17.77
2023-01-02T13:02:54.409Z,17.18
2023-01-02T13:05:26.510Z,16.53
2023-01-02T13:08:14.954Z,16.14
2023-01-02T13:10:46.592Z,15.85
2023-01-02T13:13:14.231Z,15.67
2023-01-02T13:15:46.911Z,15.52
2023-01-02T13:18:31.901Z,15.39
2023-01-02T13:21:29.956Z,15.26
2023-01-02T13:23:57.356Z,15.14
2023-01-02T13:26:29.508Z,15.03
2023-01-02T13:29:08.330Z,14.94
2023-01-02T13:31:48.760Z,14.84
2023-01-02T13:34:27.435Z,14.77
2023-01-02T13:37:25.393Z,15.23
2023-01-02T13:39:55.740Z,17.56
2023-01-02T13:42:51.363Z,18.24
2023-01-02T13:45:31.166Z,17.28
2023-01-02T13:48:02.387Z,16.63
2023-01-02T13:50:34.234Z,16.23
2023-01-02T13:53:10.067Z,15.95
2023-01-02T13:55:40.327Z,15.74
2023-01-02T13:58:17.254Z,15.56
2023-01-02T14:00:55.225Z,15.39
2023-01-02T14:03:22.788Z,15.24
2023-01-02T14:05:56.210Z,15.10
2023-01-02T14:08:31.465Z,14.97
2023-01-02T14:11:28.078Z,14.86
2023-01-02T14:13:55.676Z,14.73
2023-01-02T14:17:37.309Z,15.37
2023-01-02T14:20:27.727Z,17.78
2023-01-02T14:23:10.586Z,17.91
2023-01-02T14:25:48.769Z,16.97
2023-01-02T14:28:29.419Z,16.35
2023-01-02T14:30:57.242Z,15.94
2023-01-02T14:33:32.988Z,15.67
2023-01-02T14:36:11.603Z,15.43
2023-01-02T14:38:43.192Z,15.24
2023-01-02T14:42:07.880Z,15.06
2023-01-02T14:44:42.402Z,14.86
2023-01-02T14:47:20.620Z,15.13
2023-01-02T14:49:56.873Z,17.09
2023-01-02T14:52:32.846Z,17.97
2023-01-02T14:55:19.982Z,17.11
2023-01-02T14:57:51.914Z,16.35
2023-01-02T15:00:38.245Z,15.90
2023-01-02T15:03:30.079Z,15.56
2023-01-02T15:06:13.230Z,15.29
2023-01-02T15:08:44.400Z,15.08
2023-01-02T15:11:44.528Z,14.92
2023-01-02T15:14:23.566Z,14.74
2023-01-02T15:16:55.927Z,15.18
2023-01-02T15:19:26.956Z,17.15
2023-01-02T15:21:54.481Z,18.11
2023-01-02T15:24:27.279Z,17.27
2023-01-02T15:26:54.034Z,16.48
2023-01-02T15:29:22.313Z,15.98
2023-01-02T15:31:58.463Z,15.62
2023-01-02T15:34:31.115Z,15.34
2023-01-02T15:37:02.935Z,15.11
2023-01-02T15:39:37.631Z,14.91
2023-01-02T15:42:25.382Z,15.38
2023-01-02T15:45:10.773Z,17.49
2023-01-02T15:47:45.261Z,17.59
2023-01-02T15:50:21.142Z,16.70
2023-01-02T15:53:01.133Z,16.06
2023-01-02T15:55:39.282Z,15.63
2023-01-02T15:58:15.153Z,15.33
2023-01-02T16:00:44.452Z,15.10
2023-01-02T16:04:00.539Z,14.91
2023-01-02T16:06:35.068Z,14.70
2023-01-02T16:09:05.032Z,15.23
2023-01-02T16:11:45.760Z,17.12
2023-01-02T16:14:19.481Z,17.27
2023-01-02T16:17:05.803Z,16.44
2023-01-02T16:19:36.852Z,15.80
2023-01-02T16:22:09.562Z,15.43
2023-01-02T16:24:40.904Z,15.15
2023-01-02T16:27:21.528Z,14.95
2023-01-02T16:29:49.800Z,14.75
2023-01-02T16:32:29.769Z,14.58
2023-01-02T16:35:38.092Z,14.42
2023-01-02T16:38:22.064Z,14.27
2023-01-02T16:41:00.989Z,14.74
2023-01-02T16:43:33.432Z,16.74
2023-01-02T16:46:05.615Z,16.79
2023-01-02T16:48:33.078Z,16.04
2023-01-02T16:51:00.222Z,15.50
2023-01-02T16:53:33.375Z,15.14
2023-01-02T16:56:00.532Z,14.89
2023-01-02T16:58:28.611Z,14.67
2023-01-02T17:00:55.766Z,14.50
2023-01-02T17:03:27.078Z,14.34
2023-01-02T17:06:01.030Z,14.20
2023-01-02T17:08:33.863Z,14.54
2023-01-02T17:11:00.943Z,16.47
2023-01-02T17:13:32.215Z,17.26
2023-01-02T17:16:00.831Z,16.44
2023-01-02T17:18:30.119Z,15.75
2023-01-02T17:20:56.922Z,15.29
2023-01-02T17:23:24.342Z,14.98
2023-01-02T17:25:54.515Z,14.73
2023-01-02T17:28:21.582Z,14.53
2023-01-02T17:30:50.101Z,14.36
2023-01-02T17:33:17.881Z,14.20
2023-01-02T17:35:47.164Z,14.05
2023-01-02T17:38:14.668Z,14.03
2023-01-02T17:40:41.515Z,15.48
2023-01-02T17:43:08.242Z,16.78
2023-01-02T17:45:35.058Z,16.18
2023-01-02T17:48:30.957Z,15.50
2023-01-02T17:50:53.158Z,14.99
2023-01-02T17:53:20.474Z,14.68
2023-01-02T17:56:20.457Z,14.45
2023-01-02T17:58:47.347Z,14.24
2023-01-02T18:01:25.987Z,14.07
2023-01-02T18:03:52.678Z,13.92
2023-01-02T18:06:19.663Z,13.80
2023-01-02T18:08:46.408Z,13.69
2023-01-02T18:11:15.622Z,13.66
2023-01-02T18:13:48.501Z,15.06
2023-01-02T18:16:20.529Z,16.43
2023-01-02T18:18:48.723Z,15.83
2023-01-02T18:21:21.315Z,15.18
2023-01-02T18:23:54.165Z,14.75
2023-01-02T18:26:20.820Z,14.46
2023-01-02T18:28:56.641Z,14.27
2023-01-02T18:31:33.028Z,14.10
2023-01-02T18:34:45.791Z,13.95
2023-01-02T18:37:05.702Z,13.80
2023-01-02T18:39:41.853Z,13.70
2023-01-02T18:42:08.563Z,13.59
2023-01-02T18:44:35.385Z,14.09
2023-01-02T18:47:28.927Z,15.90
2023-01-02T18:50:23.764Z,15.87
2023-01-02T18:52:51.127Z,15.10
2023-01-02T18:55:28.083Z,14.66
2023-01-02T18:58:01.506Z,14.37
2023-01-02T19:00:36.172Z,14.16
2023-01-02T19:03:21.113Z,14.00
2023-01-02T19:05:47.915Z,13.86
2023-01-02T19:08:34.560Z,13.75
2023-01-02T19:11:21.450Z,13.64
2023-01-02T19:13:49.707Z,13.61
2023-01-02T19:16:19.581Z,15.03
2023-01-02T19:18:55.859Z,16.48
2023-01-02T19:21:31.695Z,15.90
2023-01-02T19:24:07.723Z,15.21
2023-01-02T19:26:44.677Z,14.76
2023-01-02T19:29:26.357Z,14.46
2023-01-02T20:01:22.932Z,13.81
2023-01-02T20:06:26.640Z,13.66
2023-01-02T20:08:14.074Z,13.94
2023-01-02T20:15:49.506Z,15.33
2023-01-02T20:24:04.715Z,14.18
2023-01-02T20:26:51.299Z,13.89
2023-01-02T20:30:50.082Z,13.74
2023-01-02T20:34:23.449Z,13.77
2023-01-02T20:37:47.280Z,16.35
2023-01-02T20:41:24.478Z,16.15
2023-01-02T20:45:11.995Z,15.07
2023-01-02T20:48:01.289Z,14.60
2023-01-02T20:52:10.943Z,14.35
2023-01-02T20:54:41.930Z,14.06
2023-01-02T20:57:19.091Z,13.90
2023-01-02T20:59:51.058Z,13.93
2023-01-02T21:02:20.118Z,15.57
2023-01-02T21:04:50.109Z,16.81
2023-01-02T21:07:22.179Z,16.12
2023-01-02T21:09:58.235Z,15.40
2023-01-02T21:12:48.116Z,14.90
2023-01-02T21:15:36.754Z,14.54
2023-01-02T21:18:31.059Z,14.28
2023-01-02T21:21:16.376Z,14.05
2023-01-02T21:24:08.884Z,13.88
2023-01-02T21:26:37.132Z,14.84
2023-01-02T21:29:06.715Z,16.35
2023-01-02T21:31:36.305Z,15.88
2023-01-02T21:34:04.485Z,15.20
2023-01-02T21:36:36.378Z,14.73
2023-01-02T21:39:08.061Z,14.42
2023-01-02T21:41:57.605Z,14.17
2023-01-02T21:44:26.227Z,14.06
2023-01-02T21:46:54.510Z,15.49
2023-01-02T21:49:22.911Z,16.82
2023-01-02T21:51:53.436Z,16.16
2023-01-02T21:54:30.666Z,15.41
2023-01-02T21:56:58.916Z,14.89
2023-01-02T21:59:30.044Z,14.56
2023-01-02T22:02:00.175Z,14.31
2023-01-02T22:04:31.960Z,14.37
2023-01-02T22:09:51.570Z,16.25
2023-01-02T22:12:29.973Z,15.47
2023-01-02T22:14:58.484Z,14.94
2023-01-02T22:17:26.527Z,15.75
2023-01-02T22:19:55.082Z,17.44
2023-01-02T22:22:26.676Z,17.05
2023-01-02T22:24:58.221Z,16.09
2023-01-02T22:27:26.779Z,16.54
2023-01-02T22:32:50.224Z,17.40
2023-01-02T22:35:18.528Z,16.39
2023-01-02T22:37:46.680Z,16.27
2023-01-02T22:40:15.044Z,17.80
2023-01-02T22:43:00.915Z,17.91
2023-01-02T22:45:39.747Z,16.71
2023-01-02T22:48:19.892Z,16.24
2023-01-02T22:50:51.219Z,17.73
2023-01-02T22:53:33.570Z,18.20
2023-01-02T22:56:07.127Z,17.00
2023-01-02T22:58:37.484Z,16.13
2023-01-02T23:01:21.728Z,16.85
2023-01-02T23:03:52.818Z,18.32
2023-01-02T23:06:23.177Z,17.56
2023-01-02T23:08:54.333Z,16.47
2023-01-02T23:11:25.553Z,16.33
2023-01-02T23:13:56.907Z,17.90
2023-01-02T23:16:46.231Z,18.35
2023-01-02T23:19:17.585Z,17.06
2023-01-02T23:22:01.834Z,16.36
2023-01-02T23:24:37.801Z,17.74
2023-01-02T23:27:13.417Z,18.46
2023-01-02T23:29:43.163Z,17.28
2023-01-02T23:32:12.882Z,16.32
2023-01-02T23:34:41.416Z,17.02
2023-01-02T23:37:11.033Z,18.45
2023-01-02T23:39:42.191Z,18.17
2023-01-02T23:42:13.303Z,16.93
2023-01-02T23:44:44.823Z,16.54
2023-01-02T23:47:18.648Z,17.94
2023-01-02T23:49:47.371Z,18.45
2023-01-02T23:52:18.748Z,17.27
2023-01-02T23:54:47.378Z,16.38
2023-01-02T23:57:16.329Z,17.31
2023-01-02T23:59:47.682Z,18.44
